Champlain, Virginia
Current Conditions -  °F | °C
As of 10:55 AM on Thursday 27 Nov 2014 (Local Time) from KXSA Reporting Station
Overcast Overcast  
Wind Chill: 42°   Ceiling: 400
Heat Index: 42°   Visibility: 10mi
Dew Point: 39°   Wind: 0mph
Humidity: 88%   Direction: NA
Pressure: 30.06"   Gusts: NA
Location:  38.01°N, 76.99°W
Report Text: KXSA 271555Z AUTO 00000KT 10SM BKN004 BKN027 OVC036 06/04 A3006 RMK AO2 T00550037
Loading
Personal Weather Stations






























Interactive Weather Map New forecast layout! Learn more

10-Day Weather Forecast

Advertisements
Track Severe Weather on mobile